Time;durP1;ratioP1;P1;durP2;ratioP2;P2;SDS_P1;SDS_P2;PMS_P1;PMS_P2;Temp;Humidity;BMP_temperature;BMP_pressure;BME280_temperature;BME280_humidity;BME280_pressure;Samples;Min_cycle;Max_cycle;Signal;HPM_P1;HPM_P2
2024/02/08 00:01:49;;;;;;;9.45;3.10;;;2.70;99.90;;;;;;5043197;28;20029;-74
2024/02/08 00:04:15;;;;;;;12.45;3.55;;;2.70;99.90;;;;;;5037439;28;20116;-75
2024/02/08 00:06:41;;;;;;;8.73;3.55;;;2.70;99.90;;;;;;5040523;28;20097;-76
2024/02/08 00:09:07;;;;;;;11.20;3.03;;;2.70;99.90;;;;;;5037044;28;20132;-74
2024/02/08 00:11:33;;;;;;;10.40;2.97;;;2.70;99.90;;;;;;5034421;28;20044;-77
2024/02/08 00:13:59;;;;;;;11.55;3.92;;;2.70;99.90;;;;;;5036545;28;20029;-76
2024/02/08 00:16:24;;;;;;;10.43;3.55;;;2.70;99.90;;;;;;5037457;28;20036;-75
2024/02/08 00:18:50;;;;;;;9.20;2.72;;;2.80;99.90;;;;;;5037902;28;20047;-75
2024/02/08 00:21:16;;;;;;;11.25;3.35;;;2.80;99.90;;;;;;5037839;28;20080;-79
2024/02/08 00:23:41;;;;;;;13.98;3.75;;;2.90;99.90;;;;;;5042717;28;20029;-75
2024/02/08 00:26:07;;;;;;;12.63;3.72;;;2.90;99.90;;;;;;5039266;28;20469;-74
2024/02/08 00:28:33;;;;;;;13.75;3.22;;;2.90;99.90;;;;;;5038945;28;20079;-74
2024/02/08 00:30:58;;;;;;;15.25;3.38;;;3.00;99.90;;;;;;5039390;28;20032;-77
2024/02/08 00:33:25;;;;;;;7.97;3.28;;;3.00;99.90;;;;;;5036584;28;20563;-76
2024/02/08 00:35:55;;;;;;;6.65;2.83;;;3.00;99.90;;;;;;5043014;28;20037;-73
2024/02/08 00:38:20;;;;;;;11.63;3.33;;;2.90;99.90;;;;;;5036805;28;20579;-73
2024/02/08 00:40:46;;;;;;;11.68;3.38;;;2.90;99.90;;;;;;5043297;28;20045;-74
2024/02/08 00:43:12;;;;;;;14.68;3.65;;;2.90;99.90;;;;;;5043136;28;20049;-73
2024/02/08 00:45:39;;;;;;;7.35;2.47;;;2.90;99.90;;;;;;5041651;28;20037;-74
2024/02/08 00:48:05;;;;;;;8.48;2.92;;;2.90;99.90;;;;;;5039505;28;20041;-75
2024/02/08 00:50:30;;;;;;;8.52;3.05;;;2.80;99.90;;;;;;5033284;28;20091;-74
2024/02/08 00:52:58;;;;;;;10.20;3.63;;;2.90;99.90;;;;;;5037962;28;20056;-74
2024/02/08 00:55:24;;;;;;;8.60;3.08;;;2.90;99.90;;;;;;5048550;28;20040;-75
2024/02/08 00:57:49;;;;;;;10.23;3.25;;;2.90;99.90;;;;;;5045478;28;20040;-78
2024/02/08 01:00:17;;;;;;;13.45;4.65;;;2.80;99.90;;;;;;5043619;28;20110;-75
2024/02/08 01:02:43;;;;;;;12.50;3.65;;;2.80;99.90;;;;;;5045421;28;20044;-76
2024/02/08 01:05:09;;;;;;;11.60;4.05;;;2.90;99.90;;;;;;5041430;28;20056;-74
2024/02/08 01:07:35;;;;;;;14.77;3.88;;;2.90;99.90;;;;;;5056971;28;20150;-75
2024/02/08 01:10:01;;;;;;;11.63;3.50;;;2.90;99.90;;;;;;5047275;28;20436;-75
2024/02/08 01:12:27;;;;;;;10.00;3.90;;;2.90;99.90;;;;;;5042004;28;20033;-78
2024/02/08 01:14:53;;;;;;;7.45;2.85;;;3.00;99.90;;;;;;5041889;28;20033;-76
2024/02/08 01:17:18;;;;;;;17.52;5.20;;;3.00;99.90;;;;;;5059892;28;20025;-74
2024/02/08 01:19:46;;;;;;;10.68;3.65;;;3.00;99.90;;;;;;5061462;28;20513;-74
2024/02/08 01:22:19;;;;;;;11.85;4.05;;;3.00;99.90;;;;;;5061600;28;20055;-74
2024/02/08 01:24:48;;;;;;;15.95;4.45;;;3.00;99.90;;;;;;5044751;28;20093;-75
2024/02/08 01:27:14;;;;;;;10.75;2.95;;;3.00;99.90;;;;;;5043377;28;20033;-72
2024/02/08 01:29:40;;;;;;;12.52;4.40;;;3.00;99.90;;;;;;5071043;28;20116;-75
2024/02/08 01:32:05;;;;;;;11.68;2.92;;;3.00;99.90;;;;;;5060314;28;20064;-75
2024/02/08 01:34:31;;;;;;;12.77;3.38;;;3.00;99.90;;;;;;5050251;28;20052;-76
2024/02/08 01:36:59;;;;;;;9.50;3.10;;;3.00;99.90;;;;;;5048993;28;20036;-73
2024/02/08 01:39:25;;;;;;;9.23;2.80;;;3.00;99.90;;;;;;5056122;28;20182;-75
2024/02/08 01:41:51;;;;;;;13.05;4.07;;;3.00;99.90;;;;;;5040243;28;20564;-75
2024/02/08 01:44:17;;;;;;;10.65;3.35;;;3.00;99.90;;;;;;5047206;28;20527;-76
2024/02/08 01:46:43;;;;;;;17.83;5.45;;;3.00;99.90;;;;;;5040614;28;20036;-76
2024/02/08 01:49:16;;;;;;;9.63;2.78;;;3.00;99.90;;;;;;5038214;28;20040;-74
2024/02/08 01:51:43;;;;;;;8.98;3.17;;;3.00;99.90;;;;;;5041796;28;20098;-75
2024/02/08 01:54:12;;;;;;;8.55;2.83;;;3.00;99.90;;;;;;5038810;28;20047;-75
2024/02/08 01:56:44;;;;;;;9.40;3.13;;;3.10;99.90;;;;;;5042918;28;22436;-75
2024/02/08 01:59:11;;;;;;;12.27;3.35;;;3.10;99.90;;;;;;5060894;28;20056;-80
2024/02/08 02:01:45;;;;;;;13.75;3.78;;;3.10;99.90;;;;;;5063115;28;20036;-77
2024/02/08 02:04:15;;;;;;;9.45;3.70;;;3.20;99.90;;;;;;5047840;28;20049;-77
2024/02/08 02:06:41;;;;;;;8.50;2.83;;;3.20;99.90;;;;;;5042410;28;20407;-78
2024/02/08 02:09:11;;;;;;;10.18;3.05;;;3.20;99.90;;;;;;5041194;28;20033;-74
2024/02/08 02:11:46;;;;;;;10.97;3.10;;;3.20;99.90;;;;;;5043748;28;20412;-75
2024/02/08 02:14:15;;;;;;;8.85;3.20;;;3.20;99.90;;;;;;5029944;28;20029;-75
2024/02/08 02:16:42;;;;;;;12.37;3.43;;;3.20;99.90;;;;;;5033840;28;20648;-75
2024/02/08 02:19:08;;;;;;;11.15;3.50;;;3.20;99.90;;;;;;5039930;28;20803;-75
2024/02/08 02:21:35;;;;;;;30.15;3.40;;;3.30;99.90;;;;;;5038944;28;20109;-77
2024/02/08 02:24:01;;;;;;;16.85;3.53;;;3.30;99.90;;;;;;5038240;28;20502;-75
2024/02/08 02:26:28;;;;;;;7.90;3.00;;;3.30;99.90;;;;;;5040066;28;20052;-75
2024/02/08 02:28:54;;;;;;;7.13;2.60;;;3.30;99.90;;;;;;5040914;28;20044;-75
2024/02/08 02:31:23;;;;;;;11.98;3.25;;;3.30;99.90;;;;;;5042966;28;20923;-74
2024/02/08 02:33:50;;;;;;;12.85;3.22;;;3.30;99.90;;;;;;5040384;28;20512;-75
2024/02/08 02:36:17;;;;;;;8.18;3.05;;;3.30;99.90;;;;;;5036700;28;20049;-76
2024/02/08 02:38:44;;;;;;;8.30;3.40;;;3.40;99.90;;;;;;5040910;28;20045;-75
2024/02/08 02:41:10;;;;;;;9.55;3.25;;;3.30;99.90;;;;;;5044042;28;20041;-79
2024/02/08 02:43:37;;;;;;;11.35;3.78;;;3.40;99.90;;;;;;5045460;28;20426;-76
2024/02/08 02:46:05;;;;;;;8.65;2.78;;;3.40;99.90;;;;;;5043449;28;20048;-75
2024/02/08 02:48:40;;;;;;;13.50;4.18;;;3.40;99.90;;;;;;5046877;28;20041;-76
2024/02/08 02:51:11;;;;;;;9.77;3.50;;;3.40;99.90;;;;;;5041051;28;20037;-76
2024/02/08 02:53:40;;;;;;;11.38;4.40;;;3.50;99.90;;;;;;5046982;28;20051;-75
2024/02/08 02:56:09;;;;;;;12.13;3.78;;;3.40;99.90;;;;;;5036356;28;20063;-78
2024/02/08 02:58:35;;;;;;;8.70;2.97;;;3.40;99.90;;;;;;5044029;28;20033;-74
2024/02/08 03:01:04;;;;;;;8.20;2.90;;;3.50;99.90;;;;;;5048894;28;20454;-77
2024/02/08 03:03:40;;;;;;;6.93;3.10;;;3.40;99.90;;;;;;5045014;28;20047;-75
2024/02/08 03:06:13;;;;;;;8.40;3.55;;;3.40;99.90;;;;;;5041799;28;20041;-74
2024/02/08 03:08:41;;;;;;;11.63;3.10;;;3.40;99.90;;;;;;5037361;28;20398;-75
2024/02/08 03:11:10;;;;;;;12.88;3.25;;;3.40;99.90;;;;;;5040099;28;20056;-77
2024/02/08 03:13:40;;;;;;;13.20;4.03;;;3.40;99.90;;;;;;5040889;28;20646;-77
2024/02/08 03:16:06;;;;;;;9.47;3.43;;;3.50;99.90;;;;;;5046224;28;20128;-76
2024/02/08 03:18:32;;;;;;;14.40;3.90;;;3.50;99.90;;;;;;5034531;28;20168;-75
2024/02/08 03:20:58;;;;;;;9.50;3.40;;;3.50;99.90;;;;;;5035911;28;20048;-76
2024/02/08 03:23:26;;;;;;;6.68;2.42;;;3.50;99.90;;;;;;5040508;28;20116;-75
2024/02/08 03:25:52;;;;;;;13.80;4.05;;;3.50;99.90;;;;;;5043698;28;20049;-76
2024/02/08 03:28:17;;;;;;;13.48;3.60;;;3.50;99.90;;;;;;5037167;28;20029;-76
2024/02/08 03:30:43;;;;;;;8.45;3.28;;;3.50;99.90;;;;;;5038030;28;20123;-76
2024/02/08 03:33:18;;;;;;;9.55;3.13;;;3.50;99.90;;;;;;5040795;28;20129;-75
2024/02/08 03:35:48;;;;;;;6.35;2.70;;;3.50;99.90;;;;;;5039436;28;20412;-76
2024/02/08 03:38:14;;;;;;;13.82;3.45;;;3.50;99.90;;;;;;5036781;28;20057;-76
2024/02/08 03:40:40;;;;;;;8.95;3.75;;;3.50;99.90;;;;;;5038059;28;20036;-76
2024/02/08 03:43:06;;;;;;;8.13;2.83;;;3.50;99.90;;;;;;5043111;28;20087;-74
2024/02/08 03:45:31;;;;;;;9.30;3.72;;;3.60;99.90;;;;;;5037121;28;20432;-76
2024/02/08 03:47:59;;;;;;;11.50;3.05;;;3.50;99.90;;;;;;5038030;28;20021;-75
2024/02/08 03:50:26;;;;;;;9.30;3.30;;;3.60;99.90;;;;;;5037255;28;20031;-77
2024/02/08 03:52:52;;;;;;;11.32;3.47;;;3.60;99.90;;;;;;5041093;28;20036;-77
2024/02/08 03:55:26;;;;;;;10.13;3.75;;;3.60;99.90;;;;;;5039956;28;20033;-75
2024/02/08 03:58:00;;;;;;;10.60;3.58;;;3.60;99.90;;;;;;5042226;28;20036;-75
2024/02/08 04:00:28;;;;;;;10.10;3.00;;;3.70;99.90;;;;;;5042032;28;20108;-75
2024/02/08 04:03:10;;;;;;;13.15;3.80;;;3.60;99.90;;;;;;5040768;28;20025;-75
2024/02/08 04:05:37;;;;;;;8.88;3.50;;;3.70;99.90;;;;;;5040926;28;20552;-75
2024/02/08 04:54:35;;;;;;;12.00;3.85;;;3.60;99.90;;;;;;5038058;28;20577;-75
2024/02/08 04:57:01;;;;;;;14.43;3.83;;;3.60;99.90;;;;;;5044580;28;20041;-75
2024/02/08 04:59:29;;;;;;;10.77;3.65;;;3.60;99.90;;;;;;5035052;28;20509;-76
2024/02/08 05:01:55;;;;;;;16.60;3.83;;;3.60;99.90;;;;;;5039344;28;20505;-76
2024/02/08 05:04:21;;;;;;;9.18;3.17;;;3.60;99.90;;;;;;5038518;28;20086;-78
2024/02/08 05:06:47;;;;;;;12.40;3.60;;;3.60;99.90;;;;;;5040195;28;20036;-76
2024/02/08 05:09:19;;;;;;;12.00;3.35;;;3.60;99.90;;;;;;5042185;28;20051;-75
2024/02/08 05:11:45;;;;;;;11.35;3.40;;;3.60;99.90;;;;;;5036232;28;20040;-78
2024/02/08 05:14:10;;;;;;;18.27;4.55;;;3.60;99.90;;;;;;5036596;28;20044;-76
2024/02/08 05:16:37;;;;;;;11.45;3.78;;;3.60;99.90;;;;;;5045940;28;20116;-75
2024/02/08 05:19:03;;;;;;;14.18;3.70;;;3.60;99.90;;;;;;5040936;28;20071;-75
2024/02/08 05:21:31;;;;;;;18.02;4.13;;;3.60;99.90;;;;;;5047759;28;20120;-76
2024/02/08 05:23:58;;;;;;;13.98;4.25;;;3.60;99.90;;;;;;5049175;28;21186;-75
2024/02/08 05:26:25;;;;;;;9.13;3.22;;;3.60;99.90;;;;;;5048470;28;20382;-76
2024/02/08 05:28:57;;;;;;;10.38;3.47;;;3.50;99.90;;;;;;5041499;28;20374;-73
2024/02/08 05:31:25;;;;;;;13.20;3.33;;;3.60;99.90;;;;;;5038191;28;20424;-73
2024/02/08 05:33:52;;;;;;;12.68;3.63;;;3.50;99.90;;;;;;5064951;28;20116;-72
2024/02/08 05:36:17;;;;;;;12.18;3.55;;;3.50;99.90;;;;;;5049694;28;20428;-73
2024/02/08 05:38:45;;;;;;;8.73;3.20;;;3.60;99.90;;;;;;5052075;28;20128;-74
2024/02/08 05:41:15;;;;;;;18.88;5.13;;;3.60;99.90;;;;;;5051393;28;20040;-74
2024/02/08 05:43:44;;;;;;;8.70;3.63;;;3.60;99.90;;;;;;5058138;28;20037;-74
2024/02/08 05:46:30;;;;;;;15.02;3.20;;;3.70;99.90;;;;;;5062825;28;20033;-74
2024/02/08 05:49:04;;;;;;;11.10;3.92;;;3.70;99.90;;;;;;5062016;28;20073;-76
2024/02/08 05:51:35;;;;;;;12.90;4.05;;;3.80;99.90;;;;;;5050478;28;20108;-73
2024/02/08 05:54:05;;;;;;;20.20;4.57;;;3.80;99.90;;;;;;5046937;28;20135;-73
2024/02/08 05:56:39;;;;;;;16.95;3.95;;;3.70;99.90;;;;;;5063742;28;20513;-78
2024/02/08 05:59:08;;;;;;;17.52;4.32;;;3.80;99.90;;;;;;5047611;28;20032;-77
2024/02/08 06:01:44;;;;;;;14.40;3.60;;;3.80;99.90;;;;;;5062123;28;20063;-75
2024/02/08 06:04:25;;;;;;;8.73;3.33;;;3.80;99.90;;;;;;5043308;28;20068;-76
2024/02/08 06:07:06;;;;;;;8.75;3.33;;;3.90;99.90;;;;;;5037630;28;20382;-74
2024/02/08 06:09:48;;;;;;;9.10;3.20;;;3.90;99.90;;;;;;5034552;28;20131;-75
2024/02/08 06:12:28;;;;;;;16.15;3.58;;;3.90;99.90;;;;;;5044190;28;20588;-75
2024/02/08 06:14:58;;;;;;;15.05;4.90;;;3.90;99.90;;;;;;5046247;28;20057;-74
2024/02/08 06:17:31;;;;;;;8.93;3.08;;;3.90;99.90;;;;;;5041888;28;20128;-75
2024/02/08 06:20:00;;;;;;;16.48;3.80;;;3.90;99.90;;;;;;5033475;28;20040;-75
2024/02/08 06:22:26;;;;;;;14.25;3.92;;;4.00;99.90;;;;;;5039631;28;20033;-74
2024/02/08 06:24:54;;;;;;;16.98;3.30;;;4.00;99.90;;;;;;5039010;28;20787;-73
2024/02/08 06:27:25;;;;;;;15.23;3.50;;;4.00;99.90;;;;;;5042233;28;20118;-73
2024/02/08 06:29:51;;;;;;;18.58;4.53;;;4.00;99.90;;;;;;5049272;28;20029;-73
2024/02/08 06:32:23;;;;;;;15.68;4.47;;;4.00;99.90;;;;;;5033750;28;20095;-74
2024/02/08 06:35:39;;;;;;;11.70;3.60;;;4.00;99.90;;;;;;5049525;28;20069;-74
2024/02/08 06:38:00;;;;;;;13.68;2.40;;;4.10;99.90;;;;;;5039747;28;20488;-74
2024/02/08 06:40:50;;;;;;;12.05;3.00;;;4.10;99.90;;;;;;5045234;28;20029;-74
2024/02/08 07:37:56;;;;;;;9.70;1.60;;;4.10;99.90;;;;;;5037428;28;20079;-74
2024/02/08 07:40:24;;;;;;;12.50;2.85;;;4.10;99.90;;;;;;5037220;28;20034;-74
2024/02/08 07:43:16;;;;;;;6.78;1.80;;;4.10;99.90;;;;;;5043092;28;20025;-74
2024/02/08 07:45:44;;;;;;;11.82;2.15;;;4.10;99.90;;;;;;5040089;28;20061;-74
2024/02/08 07:48:13;;;;;;;8.13;1.90;;;4.10;99.90;;;;;;5041531;28;20485;-71
2024/02/08 07:50:44;;;;;;;9.93;2.70;;;4.10;99.90;;;;;;5042167;28;20777;-74
2024/02/08 07:53:35;;;;;;;7.53;1.90;;;4.10;99.90;;;;;;5036740;28;20085;-73
2024/02/08 07:58:56;;;;;;;20.67;3.17;;;4.20;99.90;;;;;;5035069;28;20136;-72
2024/02/08 08:01:22;;;;;;;15.90;2.60;;;4.20;99.90;;;;;;5037507;28;20044;-73
2024/02/08 08:03:56;;;;;;;10.45;2.30;;;4.20;99.90;;;;;;5040537;28;20573;-73
2024/02/08 08:06:22;;;;;;;13.23;2.45;;;4.20;99.90;;;;;;5038853;28;20144;-73
2024/02/08 08:08:57;;;;;;;12.05;2.58;;;4.20;99.90;;;;;;5043459;28;20051;-73
2024/02/08 08:11:30;;;;;;;15.18;2.05;;;4.30;99.90;;;;;;5048805;28;20056;-74
2024/02/08 08:18:57;;;;;;;7.35;1.90;;;4.30;99.90;;;;;;5070787;28;20053;-75
2024/02/08 08:21:27;;;;;;;22.88;4.22;;;4.30;99.90;;;;;;5041754;28;20417;-72
2024/02/08 08:24:00;;;;;;;8.10;1.52;;;4.30;99.90;;;;;;5048983;28;20123;-72
2024/02/08 08:26:39;;;;;;;19.70;4.93;;;4.40;99.90;;;;;;5060505;28;20058;-73
2024/02/08 08:29:16;;;;;;;13.05;2.67;;;4.40;99.90;;;;;;5060602;28;20120;-73
2024/02/08 08:31:51;;;;;;;11.65;2.63;;;4.40;99.90;;;;;;5041077;28;20024;-73
2024/02/08 08:37:02;;;;;;;10.48;2.80;;;4.40;99.90;;;;;;5059463;28;20032;-74
2024/02/08 08:39:57;;;;;;;17.08;2.65;;;4.40;99.90;;;;;;5058625;28;20068;-75
2024/02/08 08:42:26;;;;;;;8.57;2.10;;;4.50;99.90;;;;;;5045269;28;20056;-74
2024/02/08 08:44:56;;;;;;;21.98;3.08;;;4.50;99.90;;;;;;5048649;28;20493;-73
2024/02/08 08:47:24;;;;;;;;;;;4.50;99.90;;;;;;5061889;28;20036;-74
2024/02/08 08:49:50;;;;;;;7.60;2.17;;;4.50;99.90;;;;;;5061755;28;19917;-75
2024/02/08 08:52:23;;;;;;;7.47;1.70;;;4.50;99.90;;;;;;5058470;28;20068;-74
2024/02/08 08:54:57;;;;;;;13.27;2.67;;;4.50;99.90;;;;;;5049051;28;20465;-72
2024/02/08 08:57:25;;;;;;;11.50;2.05;;;4.40;99.90;;;;;;5057883;28;20049;-74
2024/02/08 08:59:56;;;;;;;10.57;2.47;;;4.40;99.90;;;;;;5053759;28;20049;-73
2024/02/08 09:02:22;;;;;;;12.00;2.92;;;4.50;99.90;;;;;;5040976;28;20037;-72
2024/02/08 09:04:50;;;;;;;7.18;2.40;;;4.50;99.90;;;;;;5065421;28;20702;-71
2024/02/08 09:07:16;;;;;;;10.52;2.38;;;4.50;99.90;;;;;;5045261;28;20107;-73
2024/02/08 09:09:55;;;;;;;7.03;2.28;;;4.50;99.90;;;;;;5064694;28;20067;-72
2024/02/08 09:12:38;;;;;;;11.27;1.95;;;4.60;99.90;;;;;;5047506;28;20684;-74
2024/02/08 09:15:26;;;;;;;14.00;2.75;;;4.60;99.90;;;;;;5062432;28;20067;-75
2024/02/08 09:17:52;;;;;;;14.93;2.85;;;4.50;99.90;;;;;;5044268;28;20055;-74
2024/02/08 09:20:25;;;;;;;8.43;1.80;;;4.50;99.90;;;;;;5042542;28;21824;-75
2024/02/08 09:22:52;;;;;;;12.40;2.42;;;4.50;99.90;;;;;;5044631;28;20083;-74
2024/02/08 09:25:19;;;;;;;17.02;3.03;;;4.50;99.90;;;;;;5044080;28;20057;-76
2024/02/08 09:27:47;;;;;;;9.85;2.97;;;4.50;99.90;;;;;;5038953;28;20128;-74
2024/02/08 09:30:14;;;;;;;12.68;2.33;;;4.50;99.90;;;;;;5040578;28;20133;-74
2024/02/08 09:32:46;;;;;;;11.65;1.52;;;4.50;99.90;;;;;;5047770;28;20040;-76
2024/02/08 09:35:11;;;;;;;11.52;2.35;;;4.50;99.90;;;;;;5045233;28;20626;-73
2024/02/08 09:37:47;;;;;;;12.18;2.40;;;4.50;99.90;;;;;;5045417;28;20029;-74
2024/02/08 09:43:11;;;;;;;15.52;2.60;;;4.40;99.90;;;;;;5039007;28;20026;-74
2024/02/08 09:48:10;;;;;;;5.47;2.35;;;4.60;99.90;;;;;;5047471;28;20059;-75
2024/02/08 09:50:36;;;;;;;11.30;2.00;;;4.60;99.90;;;;;;5043803;28;20040;-73
2024/02/08 09:53:18;;;;;;;6.38;2.10;;;4.60;99.90;;;;;;5051399;28;20017;-74
2024/02/08 09:55:55;;;;;;;8.70;2.53;;;4.60;99.90;;;;;;5045567;28;20040;-74
2024/02/08 09:58:35;;;;;;;15.20;2.55;;;4.70;99.90;;;;;;5043085;28;20080;-72
2024/02/08 10:01:02;;;;;;;9.25;1.73;;;4.70;99.90;;;;;;5042996;28;20041;-77
2024/02/08 10:03:31;;;;;;;17.77;2.88;;;4.80;99.90;;;;;;5033779;28;20039;-74
2024/02/08 10:06:22;;;;;;;9.90;2.03;;;4.80;99.90;;;;;;5040597;28;20033;-74
2024/02/08 10:08:54;;;;;;;9.35;1.65;;;4.90;99.90;;;;;;5040031;28;20055;-71
2024/02/08 10:11:36;;;;;;;16.02;2.60;;;4.90;99.90;;;;;;5043473;28;20045;-76
2024/02/08 10:14:06;;;;;;;17.00;3.33;;;4.90;99.90;;;;;;5040494;28;20117;-77
2024/02/08 10:16:43;;;;;;;15.02;3.25;;;5.00;99.90;;;;;;5041751;28;20111;-73
2024/02/08 10:19:28;;;;;;;14.27;2.33;;;5.00;99.90;;;;;;5044280;28;20028;-74
2024/02/08 10:22:00;;;;;;;9.68;2.53;;;4.90;99.90;;;;;;5040911;28;20032;-75
2024/02/08 10:24:44;;;;;;;18.58;3.35;;;5.00;99.90;;;;;;5034754;28;20025;-75
2024/02/08 10:27:19;;;;;;;10.85;2.20;;;4.90;99.90;;;;;;5035368;28;20120;-74
2024/02/08 10:29:51;;;;;;;16.52;2.75;;;4.90;99.90;;;;;;5043433;28;20125;-74
2024/02/08 10:32:20;;;;;;;14.13;2.47;;;4.90;99.90;;;;;;5045626;28;20068;-76
2024/02/08 10:34:46;;;;;;;13.63;3.38;;;4.80;99.90;;;;;;5042957;28;20037;-75
2024/02/08 10:37:46;;;;;;;9.02;1.58;;;4.80;99.90;;;;;;5045677;28;20029;-74
2024/02/08 10:39:59;;;;;;;12.27;2.70;;;4.70;99.90;;;;;;5051128;28;20045;-74
2024/02/08 10:42:29;;;;;;;11.52;3.22;;;4.70;99.90;;;;;;5044506;28;20044;-74
2024/02/08 10:45:05;;;;;;;14.15;3.55;;;4.70;99.90;;;;;;5041873;28;20029;-75
2024/02/08 10:47:39;;;;;;;12.15;2.70;;;4.70;99.90;;;;;;5039147;28;20033;-76
2024/02/08 10:50:19;;;;;;;17.00;2.72;;;4.60;99.90;;;;;;5042490;28;20041;-73
2024/02/08 10:52:49;;;;;;;10.38;3.25;;;4.60;99.90;;;;;;5035006;28;20029;-75
2024/02/08 10:55:30;;;;;;;9.88;2.50;;;4.50;99.90;;;;;;5042884;28;20509;-74
2024/02/08 10:58:19;;;;;;;20.13;3.95;;;4.50;99.90;;;;;;5039052;28;20179;-73
2024/02/08 11:03:28;;;;;;;13.13;3.10;;;4.50;99.90;;;;;;5064013;28;20075;-74
2024/02/08 11:06:00;;;;;;;17.08;3.97;;;4.50;99.90;;;;;;5059829;28;20139;-73
2024/02/08 11:09:14;;;;;;;11.70;3.20;;;4.40;99.90;;;;;;5060058;28;20440;-73
2024/02/08 11:11:20;;;;;;;11.05;3.22;;;4.40;99.90;;;;;;5054968;28;20091;-73
2024/02/08 11:13:53;;;;;;;16.13;3.05;;;4.40;99.90;;;;;;5062451;28;20028;-74
2024/02/08 11:16:33;;;;;;;14.55;3.20;;;4.40;99.90;;;;;;5058100;28;20094;-73
2024/02/08 11:19:04;;;;;;;11.60;3.15;;;4.40;99.90;;;;;;5040464;28;20025;-75
2024/02/08 11:21:45;;;;;;;16.75;3.80;;;4.40;99.90;;;;;;5063310;28;20397;-73
2024/02/08 11:24:39;;;;;;;10.85;3.53;;;4.30;99.90;;;;;;5064411;28;20387;-74
2024/02/08 11:27:05;;;;;;;17.40;4.05;;;4.30;99.90;;;;;;5038208;28;20060;-72
2024/02/08 11:29:45;;;;;;;16.15;3.75;;;4.40;99.90;;;;;;5046820;28;20037;-72
2024/02/08 11:32:17;;;;;;;14.05;4.15;;;4.40;99.90;;;;;;5058896;28;20037;-73
2024/02/08 11:34:44;;;;;;;14.27;3.83;;;4.40;99.90;;;;;;5042254;28;20076;-73
2024/02/08 11:37:17;;;;;;;17.83;3.53;;;4.40;99.90;;;;;;5063738;28;20036;-76
2024/02/08 11:39:46;;;;;;;13.40;3.80;;;4.40;99.90;;;;;;5040528;28;20049;-73
2024/02/08 11:42:17;;;;;;;9.13;3.60;;;4.40;99.90;;;;;;5049777;28;20033;-73
2024/02/08 11:44:45;;;;;;;;;;;4.40;99.90;;;;;;5062054;28;20131;-73
2024/02/08 11:47:23;;;;;;;15.90;3.97;;;4.50;99.90;;;;;;5046290;28;19920;-78
2024/02/08 11:49:57;;;;;;;12.52;3.78;;;4.50;99.90;;;;;;5054200;28;20123;-75
2024/02/08 11:52:23;;;;;;;13.18;3.85;;;4.40;99.90;;;;;;5054179;28;20037;-73
2024/02/08 11:55:08;;;;;;;19.13;4.22;;;4.40;99.90;;;;;;5036202;28;20036;-72
2024/02/08 11:57:42;;;;;;;27.13;5.45;;;4.40;99.90;;;;;;5056416;28;20554;-73
2024/02/08 12:00:15;;;;;;;11.18;3.90;;;4.40;99.90;;;;;;5043436;28;20036;-73
2024/02/08 12:02:47;;;;;;;19.08;5.07;;;4.40;99.90;;;;;;5061116;28;20038;-74
2024/02/08 12:05:15;;;;;;;14.98;3.50;;;4.50;99.90;;;;;;5062915;28;20484;-72
2024/02/08 12:07:45;;;;;;;32.28;5.63;;;4.50;99.90;;;;;;5041841;28;20752;-73
2024/02/08 12:10:15;;;;;;;18.42;5.25;;;4.40;99.90;;;;;;5058395;28;20040;-73
2024/02/08 12:12:41;;;;;;;12.15;4.35;;;4.40;99.90;;;;;;5046998;28;20051;-73
2024/02/08 12:15:07;;;;;;;15.18;4.95;;;4.40;99.90;;;;;;5065450;28;20065;-72
2024/02/08 12:17:33;;;;;;;14.32;4.25;;;4.40;99.90;;;;;;5046034;28;20044;-73
2024/02/08 12:20:01;;;;;;;14.65;4.43;;;4.40;99.90;;;;;;5037316;28;20033;-73
2024/02/08 12:22:29;;;;;;;14.52;4.55;;;4.40;99.90;;;;;;5060402;28;20048;-72
2024/02/08 12:25:02;;;;;;;14.82;3.70;;;4.30;99.90;;;;;;5062325;28;20036;-72
2024/02/08 12:27:29;;;;;;;16.48;4.32;;;4.30;99.90;;;;;;5060400;28;20040;-73
2024/02/08 12:29:57;;;;;;;20.10;4.05;;;4.20;99.90;;;;;;5048673;28;20028;-73
2024/02/08 12:32:27;;;;;;;21.33;4.70;;;4.20;99.90;;;;;;5043647;28;20097;-73
2024/02/08 12:34:57;;;;;;;18.30;4.28;;;4.20;99.90;;;;;;5059020;28;20119;-74
2024/02/08 12:37:29;;;;;;;21.97;5.13;;;4.10;99.90;;;;;;5060977;28;20548;-74
2024/02/08 12:39:55;;;;;;;17.02;5.10;;;4.10;99.90;;;;;;5059428;28;20028;-74
2024/02/08 12:42:23;;;;;;;17.42;4.63;;;4.00;99.90;;;;;;5061185;28;20056;-71
2024/02/08 12:44:50;;;;;;;11.05;3.78;;;4.10;99.90;;;;;;5036335;28;20047;-73
2024/02/08 12:47:19;;;;;;;9.38;3.42;;;4.10;99.90;;;;;;5043146;28;20539;-72
2024/02/08 12:49:45;;;;;;;15.32;4.10;;;4.10;99.90;;;;;;5066347;28;20047;-72
2024/02/08 12:52:13;;;;;;;12.43;3.35;;;4.10;99.90;;;;;;5048730;28;20119;-71
2024/02/08 12:54:39;;;;;;;17.95;4.65;;;4.10;99.90;;;;;;5054387;28;20040;-72
2024/02/08 12:57:11;;;;;;;14.27;4.20;;;4.10;99.90;;;;;;5061581;28;20029;-74
2024/02/08 12:59:38;;;;;;;11.82;3.85;;;4.20;99.90;;;;;;5057355;28;20041;-73
2024/02/08 13:02:12;;;;;;;15.48;3.67;;;4.20;99.90;;;;;;5063132;28;20032;-73
2024/02/08 13:04:43;;;;;;;19.95;4.80;;;4.20;99.90;;;;;;5052014;28;20110;-73
2024/02/08 13:07:14;;;;;;;16.80;3.85;;;4.10;99.90;;;;;;5055364;28;20029;-71
2024/02/08 13:09:39;;;;;;;12.93;3.83;;;4.10;99.90;;;;;;5055934;28;20139;-73
2024/02/08 13:12:20;;;;;;;15.77;3.70;;;4.10;99.90;;;;;;5054642;28;20502;-72
2024/02/08 13:14:49;;;;;;;12.32;4.43;;;4.20;99.90;;;;;;5043881;28;20037;-72
2024/02/08 13:17:26;;;;;;;13.32;4.47;;;4.10;99.90;;;;;;5058979;28;20035;-72
2024/02/08 13:19:55;;;;;;;8.38;3.17;;;4.00;99.90;;;;;;5054296;28;20519;-71
2024/02/08 13:22:24;;;;;;;18.95;4.32;;;4.00;99.90;;;;;;5057982;28;20483;-71
2024/02/08 13:24:54;;;;;;;16.42;4.13;;;4.00;99.90;;;;;;5044104;28;20032;-71
2024/02/08 13:27:24;;;;;;;12.95;3.47;;;4.00;99.90;;;;;;5042818;28;20048;-73
2024/02/08 13:29:54;;;;;;;12.45;4.10;;;4.00;99.90;;;;;;5061940;28;20119;-73
2024/02/08 13:32:25;;;;;;;14.65;3.63;;;3.90;99.90;;;;;;5063566;28;20417;-72
2024/02/08 13:34:55;;;;;;;9.43;3.45;;;4.00;99.90;;;;;;5041794;28;20513;-72
2024/02/08 13:37:22;;;;;;;19.20;4.47;;;4.00;99.90;;;;;;5055624;28;20033;-73
2024/02/08 13:39:48;;;;;;;14.70;4.43;;;4.00;99.90;;;;;;5057741;28;20029;-73
2024/02/08 13:42:15;;;;;;;9.30;2.75;;;4.00;99.90;;;;;;5059987;28;20025;-73
2024/02/08 13:44:44;;;;;;;12.98;2.80;;;3.90;99.90;;;;;;5027085;28;20037;-72
2024/02/08 13:47:10;;;;;;;17.77;4.18;;;3.90;99.90;;;;;;5046252;28;20044;-73
2024/02/08 13:49:37;;;;;;;13.73;3.83;;;3.90;99.90;;;;;;5021539;28;20029;-72
2024/02/08 13:52:03;;;;;;;14.23;3.28;;;3.80;99.90;;;;;;5060689;28;20119;-73
2024/02/08 13:54:31;;;;;;;9.50;2.90;;;3.80;99.90;;;;;;5044593;28;20120;-73
2024/02/08 13:56:57;;;;;;;12.68;2.60;;;3.80;99.90;;;;;;5068728;28;20115;-73
2024/02/08 13:59:23;;;;;;;13.70;3.42;;;3.70;99.90;;;;;;5070443;28;20563;-74
2024/02/08 14:01:48;;;;;;;7.10;3.00;;;3.70;99.90;;;;;;5051776;28;20032;-72
2024/02/08 14:04:20;;;;;;;8.07;2.00;;;3.70;99.90;;;;;;5055139;28;20040;-73
2024/02/08 14:06:55;;;;;;;7.05;2.50;;;3.70;99.90;;;;;;5070667;28;20040;-72
2024/02/08 14:09:25;;;;;;;10.45;2.67;;;3.60;99.90;;;;;;5050533;28;20032;-71
2024/02/08 14:11:55;;;;;;;11.10;3.00;;;3.60;99.90;;;;;;5069308;28;20044;-73
2024/02/08 14:14:31;;;;;;;7.70;2.42;;;3.50;99.90;;;;;;5050348;28;20040;-71
2024/02/08 14:16:58;;;;;;;14.43;2.88;;;3.50;99.90;;;;;;5050068;28;20036;-72
2024/02/08 14:19:33;;;;;;;8.75;1.65;;;3.40;99.90;;;;;;5045480;28;20029;-73
2024/02/08 14:22:06;;;;;;;14.35;3.08;;;3.40;99.90;;;;;;5068685;28;20038;-71
2024/02/08 14:24:36;;;;;;;9.75;1.98;;;3.40;99.90;;;;;;5068243;28;20036;-72
2024/02/08 14:27:05;;;;;;;9.75;1.77;;;3.40;99.90;;;;;;5069452;28;20059;-72
2024/02/08 14:29:37;;;;;;;10.10;2.13;;;3.40;99.90;;;;;;5068021;28;20558;-73
2024/02/08 14:32:04;;;;;;;6.30;2.25;;;3.40;99.90;;;;;;5051601;28;20055;-73
2024/02/08 14:34:36;;;;;;;6.63;1.67;;;3.30;99.90;;;;;;5051098;28;20041;-73
2024/02/08 14:37:03;;;;;;;7.38;2.40;;;3.30;99.90;;;;;;5052972;28;20033;-72
2024/02/08 14:39:32;;;;;;;4.38;1.92;;;3.30;99.90;;;;;;5055936;28;20041;-74
2024/02/08 14:42:10;;;;;;;2.85;1.58;;;3.20;99.90;;;;;;5080874;28;20501;-74
2024/02/08 14:44:44;;;;;;;12.88;2.85;;;3.20;99.90;;;;;;5050486;28;20036;-73
2024/02/08 14:47:21;;;;;;;6.30;1.50;;;3.30;99.90;;;;;;5065623;28;20063;-73
2024/02/08 14:49:58;;;;;;;8.73;2.13;;;3.30;99.90;;;;;;5044515;28;20037;-72
2024/02/08 14:52:34;;;;;;;4.53;1.58;;;3.30;99.90;;;;;;5024382;28;20049;-74
2024/02/08 14:55:10;;;;;;;6.65;1.73;;;3.30;99.90;;;;;;5023657;28;20493;-71
2024/02/08 14:57:42;;;;;;;8.95;2.17;;;3.30;99.90;;;;;;5044640;28;20037;-73
2024/02/08 15:03:02;;;;;;;4.32;1.55;;;3.30;99.90;;;;;;5039102;28;20080;-72
2024/02/08 15:06:38;;;;;;;6.70;1.85;;;3.30;99.90;;;;;;5030876;28;20030;-75
2024/02/08 15:11:25;;;;;;;7.10;2.05;;;3.30;99.90;;;;;;5037034;28;20041;-75
2024/02/08 15:13:55;;;;;;;6.13;2.47;;;3.30;99.90;;;;;;5050192;28;20029;-71